createdAt,value
2022-08-26T00:01:56.685Z,17.37
2022-08-26T00:04:26.154Z,17.39
2022-08-26T00:06:56.649Z,17.42
2022-08-26T00:09:25.460Z,17.53
2022-08-26T00:11:54.457Z,17.60
2022-08-26T00:14:28.284Z,17.48
2022-08-26T00:16:57.934Z,17.34
2022-08-26T00:19:25.603Z,17.21
2022-08-26T00:21:52.938Z,17.36
2022-08-26T00:24:21.902Z,17.37
2022-08-26T00:26:50.055Z,17.35
2022-08-26T00:29:19.748Z,17.48
2022-08-26T00:31:49.329Z,17.64
2022-08-26T00:34:19.434Z,17.56
2022-08-26T00:36:49.361Z,17.48
2022-08-26T00:39:20.989Z,17.50
2022-08-26T00:41:48.825Z,17.59
2022-08-26T00:44:17.204Z,17.46
2022-08-26T00:47:01.152Z,17.47
2022-08-26T00:49:38.117Z,17.58
2022-08-26T00:52:09.688Z,17.54
2022-08-26T00:54:47.031Z,17.58
2022-08-26T00:57:17.880Z,17.61
2022-08-26T00:59:47.836Z,17.31
2022-08-26T01:02:21.246Z,17.37
2022-08-26T01:04:55.733Z,17.37
2022-08-26T01:07:30.116Z,17.24
2022-08-26T01:10:01.306Z,17.23
2022-08-26T01:12:34.001Z,17.26
2022-08-26T01:15:02.642Z,17.18
2022-08-26T01:17:30.587Z,17.22
2022-08-26T01:20:12.767Z,17.25
2022-08-26T01:22:53.481Z,17.07
2022-08-26T01:25:23.147Z,17.15
2022-08-26T01:27:52.673Z,17.19
2022-08-26T01:30:21.257Z,17.11
2022-08-26T01:32:50.642Z,16.92
2022-08-26T01:35:19.856Z,16.90
2022-08-26T01:37:48.961Z,16.94
2022-08-26T01:40:19.107Z,16.92
2022-08-26T01:42:49.264Z,16.87
2022-08-26T01:45:25.450Z,16.77
2022-08-26T01:47:57.367Z,16.59
2022-08-26T01:50:33.201Z,16.68
2022-08-26T01:53:06.284Z,16.62
2022-08-26T01:55:35.366Z,16.63
2022-08-26T01:58:08.326Z,16.65
2022-08-26T02:00:36.546Z,16.67
2022-08-26T02:03:17.210Z,16.66
2022-08-26T02:05:51.464Z,16.64
2022-08-26T02:08:24.801Z,16.70
2022-08-26T02:10:54.902Z,16.53
2022-08-26T02:13:23.412Z,16.65
2022-08-26T02:15:53.417Z,16.78
2022-08-26T02:18:22.852Z,16.61
2022-08-26T02:20:53.266Z,16.55
2022-08-26T02:23:20.923Z,16.45
2022-08-26T02:26:09.181Z,16.55
2022-08-26T02:28:46.596Z,16.64
2022-08-26T02:31:14.125Z,16.37
2022-08-26T02:33:43.305Z,16.57
2022-08-26T02:36:10.690Z,16.39
2022-08-26T02:38:40.708Z,16.17
2022-08-26T02:41:11.426Z,16.24
2022-08-26T02:43:38.737Z,16.24
2022-08-26T02:46:06.716Z,16.28
2022-08-26T02:48:34.419Z,16.25
2022-08-26T02:51:03.303Z,16.36
2022-08-26T02:53:31.754Z,16.23
2022-08-26T02:55:59.762Z,16.14
2022-08-26T02:58:27.416Z,16.15
2022-08-26T03:00:54.878Z,15.92
2022-08-26T03:03:23.717Z,16.16
2022-08-26T03:05:52.370Z,15.68
2022-08-26T03:08:20.116Z,15.94
2022-08-26T03:10:48.165Z,16.08
2022-08-26T03:13:17.123Z,16.08
2022-08-26T03:15:45.910Z,16.17
2022-08-26T03:18:16.343Z,16.08
2022-08-26T03:20:43.974Z,16.09
2022-08-26T03:23:13.258Z,16.22
2022-08-26T03:25:41.190Z,16.27
2022-08-26T03:28:09.631Z,16.27
2022-08-26T03:30:44.924Z,16.24
2022-08-26T03:33:14.146Z,16.27
2022-08-26T03:35:43.660Z,16.36
2022-08-26T03:38:11.565Z,16.34
2022-08-26T03:40:40.202Z,16.18
2022-08-26T03:43:10.081Z,16.20
2022-08-26T03:45:38.505Z,16.00
2022-08-26T03:48:06.271Z,15.93
2022-08-26T03:50:35.675Z,16.01
2022-08-26T03:53:04.269Z,15.97
2022-08-26T03:55:35.122Z,15.86
2022-08-26T03:58:02.792Z,16.02
2022-08-26T04:00:31.242Z,16.07
2022-08-26T04:02:59.110Z,15.92
2022-08-26T04:05:27.092Z,16.02
2022-08-26T04:07:56.148Z,16.01
2022-08-26T04:10:28.422Z,16.05
2022-08-26T04:12:58.796Z,15.95
2022-08-26T04:15:27.295Z,16.01
2022-08-26T04:17:56.094Z,15.89
2022-08-26T04:20:26.183Z,16.08
2022-08-26T04:22:54.035Z,15.92
2022-08-26T04:25:22.663Z,16.04
2022-08-26T04:27:51.871Z,15.79
2022-08-26T04:30:20.289Z,15.92
2022-08-26T04:32:49.522Z,16.06
2022-08-26T04:35:17.016Z,15.94
2022-08-26T04:37:44.938Z,16.19
2022-08-26T04:40:12.648Z,16.33
2022-08-26T04:42:40.140Z,16.31
2022-08-26T04:45:10.015Z,16.19
2022-08-26T04:47:38.304Z,16.37
2022-08-26T04:50:07.485Z,16.63
2022-08-26T04:52:36.879Z,16.58
2022-08-26T04:55:06.021Z,16.67
2022-08-26T04:57:34.156Z,16.74
2022-08-26T05:00:02.594Z,16.69
2022-08-26T05:02:31.732Z,16.82
2022-08-26T05:05:00.242Z,16.72
2022-08-26T05:07:27.957Z,16.73
2022-08-26T05:09:55.561Z,16.71
2022-08-26T05:12:23.506Z,16.78
2022-08-26T05:14:51.502Z,16.73
2022-08-26T05:17:19.336Z,16.82
2022-08-26T05:19:47.433Z,16.76
2022-08-26T05:22:15.355Z,16.89
2022-08-26T05:24:46.597Z,16.94
2022-08-26T05:27:15.469Z,17.26
2022-08-26T05:29:42.991Z,17.26
2022-08-26T05:32:12.181Z,17.32
2022-08-26T05:34:40.019Z,17.36
2022-08-26T05:37:10.452Z,17.49
2022-08-26T05:39:41.405Z,17.48
2022-08-26T05:42:11.182Z,17.33
2022-08-26T05:44:54.148Z,17.21
2022-08-26T05:47:25.744Z,17.16
2022-08-26T05:49:53.481Z,17.31
2022-08-26T05:52:20.836Z,17.44
2022-08-26T05:54:48.711Z,17.46
2022-08-26T05:57:16.422Z,17.50
2022-08-26T05:59:46.013Z,17.31
2022-08-26T06:02:13.741Z,17.31
2022-08-26T06:04:41.660Z,17.33
2022-08-26T06:07:11.730Z,17.52
2022-08-26T06:09:39.821Z,17.77
2022-08-26T06:12:07.781Z,17.88
2022-08-26T06:14:36.200Z,18.09
2022-08-26T06:17:04.425Z,18.15
2022-08-26T06:19:32.875Z,18.00
2022-08-26T06:22:23.477Z,17.64
2022-08-26T06:25:10.123Z,17.92
2022-08-26T06:27:37.648Z,17.99
2022-08-26T06:30:05.799Z,18.08
2022-08-26T06:32:33.725Z,17.69
2022-08-26T06:35:01.588Z,18.04
2022-08-26T06:37:29.328Z,18.06
2022-08-26T06:39:56.812Z,18.26
2022-08-26T06:42:25.106Z,18.44
2022-08-26T06:44:52.923Z,18.57
2022-08-26T06:47:20.715Z,18.81
2022-08-26T06:49:48.566Z,18.88
2022-08-26T06:52:23.055Z,18.99
2022-08-26T06:54:51.953Z,18.92
2022-08-26T06:57:20.774Z,18.62
2022-08-26T06:59:48.718Z,18.53
2022-08-26T07:02:18.893Z,18.33
2022-08-26T07:04:47.837Z,18.65
2022-08-26T07:07:15.568Z,18.91
2022-08-26T07:09:42.929Z,19.07
2022-08-26T07:12:10.766Z,19.13
2022-08-26T07:14:38.483Z,19.46
2022-08-26T07:17:10.061Z,19.72
2022-08-26T07:19:39.986Z,19.80
2022-08-26T07:22:08.776Z,19.91
2022-08-26T07:24:40.461Z,19.88
2022-08-26T07:27:13.796Z,19.86
2022-08-26T07:29:43.628Z,19.99
2022-08-26T07:32:14.209Z,19.91
2022-08-26T07:34:43.228Z,19.71
2022-08-26T07:37:12.101Z,19.36
2022-08-26T07:39:41.813Z,19.48
2022-08-26T07:42:14.108Z,19.54
2022-08-26T07:44:43.540Z,19.47
2022-08-26T07:47:25.096Z,19.57
2022-08-26T07:49:55.869Z,19.73
2022-08-26T07:52:27.027Z,20.10
2022-08-26T07:54:56.632Z,20.32
2022-08-26T07:57:25.221Z,20.66
2022-08-26T07:59:55.046Z,20.71
2022-08-26T08:02:23.796Z,21.10
2022-08-26T08:04:52.486Z,21.49
2022-08-26T08:07:20.350Z,22.02
2022-08-26T08:09:49.823Z,22.39
2022-08-26T08:12:19.362Z,22.56
2022-08-26T08:14:47.256Z,22.60
2022-08-26T08:17:16.576Z,22.96
2022-08-26T08:19:44.537Z,23.36
2022-08-26T08:22:17.436Z,23.30
2022-08-26T08:24:49.722Z,23.63
2022-08-26T08:27:23.869Z,23.86
2022-08-26T08:29:54.969Z,24.20
2022-08-26T08:32:24.115Z,24.23
2022-08-26T08:34:51.872Z,24.41
2022-08-26T08:37:19.262Z,24.41
2022-08-26T08:39:46.705Z,24.83
2022-08-26T08:42:31.605Z,24.99
2022-08-26T08:45:04.192Z,25.06
2022-08-26T08:47:47.540Z,25.24
2022-08-26T08:50:14.864Z,25.32
2022-08-26T08:52:45.288Z,25.43
2022-08-26T08:55:18.024Z,25.71
2022-08-26T08:58:07.957Z,25.51
2022-08-26T09:00:51.937Z,25.51
2022-08-26T09:03:55.117Z,25.87
2022-08-26T09:06:22.556Z,25.73
2022-08-26T09:08:51.528Z,25.96
2022-08-26T09:11:22.555Z,26.15
2022-08-26T09:13:56.740Z,26.22
2022-08-26T09:16:41.974Z,26.32
2022-08-26T09:19:33.873Z,26.19
2022-08-26T09:22:05.795Z,26.27
2022-08-26T09:24:42.124Z,26.35
2022-08-26T09:27:37.920Z,26.31
2022-08-26T09:30:11.525Z,26.70
2022-08-26T09:32:40.672Z,27.08
2022-08-26T09:35:11.090Z,27.28
2022-08-26T09:40:27.110Z,26.84
2022-08-26T09:43:23.201Z,27.24
2022-08-26T09:46:10.342Z,27.13
2022-08-26T09:51:35.744Z,27.38
2022-08-26T09:54:08.232Z,27.43
2022-08-26T09:56:39.197Z,27.48
2022-08-26T09:59:11.703Z,28.13
2022-08-26T10:01:44.732Z,28.03
2022-08-26T10:04:26.773Z,27.82
2022-08-26T10:07:07.414Z,27.57
2022-08-26T10:09:40.921Z,27.75
2022-08-26T10:12:15.521Z,27.82
2022-08-26T10:14:57.964Z,27.61
2022-08-26T10:17:32.389Z,27.80
2022-08-26T10:20:23.543Z,27.74
2022-08-26T10:23:00.635Z,27.86
2022-08-26T10:25:45.021Z,27.58
2022-08-26T10:28:31.531Z,27.92
2022-08-26T10:31:12.997Z,28.10
2022-08-26T10:33:40.511Z,28.10
2022-08-26T10:36:39.330Z,28.48
2022-08-26T10:39:24.616Z,28.63
2022-08-26T10:41:56.833Z,27.92
2022-08-26T10:44:25.813Z,28.52
2022-08-26T10:47:03.812Z,28.59
2022-08-26T10:49:32.588Z,28.86
2022-08-26T10:52:29.437Z,29.11
2022-08-26T10:55:05.553Z,28.76
2022-08-26T10:57:57.603Z,28.85
2022-08-26T11:00:53.621Z,29.12
2022-08-26T11:03:35.907Z,28.97
2022-08-26T11:06:37.090Z,29.16
2022-08-26T11:09:09.216Z,29.24
2022-08-26T11:11:46.900Z,28.98
2022-08-26T11:14:29.041Z,28.64
2022-08-26T11:16:58.927Z,28.37
2022-08-26T11:19:58.962Z,28.39
2022-08-26T11:22:32.819Z,28.41
2022-08-26T11:25:06.833Z,28.92
2022-08-26T11:27:37.515Z,29.02
2022-08-26T11:30:27.931Z,28.87
2022-08-26T11:32:59.040Z,29.55
2022-08-26T11:35:34.905Z,29.57
2022-08-26T11:38:28.713Z,29.22
2022-08-26T11:41:10.845Z,29.26
2022-08-26T11:43:40.839Z,29.39
2022-08-26T11:46:12.277Z,29.48
2022-08-26T11:48:42.564Z,29.18
2022-08-26T11:51:16.362Z,29.28
2022-08-26T11:53:47.231Z,29.20
2022-08-26T11:56:28.861Z,29.13
2022-08-26T11:59:03.239Z,29.50
2022-08-26T12:01:35.781Z,29.61
2022-08-26T12:04:10.913Z,29.48
2022-08-26T12:06:53.336Z,29.52
2022-08-26T12:09:26.048Z,29.53
2022-08-26T12:11:58.030Z,29.79
2022-08-26T12:14:27.654Z,29.91
2022-08-26T12:16:55.270Z,29.82
2022-08-26T12:19:25.253Z,30.29
2022-08-26T12:22:48.192Z,30.66
2022-08-26T12:25:24.269Z,29.72
2022-08-26T12:27:54.002Z,30.26
2022-08-26T12:30:24.741Z,30.41
2022-08-26T12:33:22.810Z,29.83
2022-08-26T12:35:56.275Z,29.81
2022-08-26T12:38:27.657Z,29.58
2022-08-26T12:40:57.072Z,29.92
2022-08-26T12:43:46.054Z,30.16
2022-08-26T12:46:18.310Z,30.18
2022-08-26T12:48:49.217Z,30.36
2022-08-26T12:51:27.473Z,30.16
2022-08-26T12:53:56.078Z,29.51
2022-08-26T12:56:27.783Z,29.98
2022-08-26T12:59:22.417Z,30.37
2022-08-26T13:01:52.730Z,30.27
2022-08-26T13:04:36.829Z,29.72
2022-08-26T13:07:26.989Z,29.63
2022-08-26T13:10:01.629Z,28.96
2022-08-26T13:12:34.573Z,28.82
2022-08-26T13:15:04.504Z,29.28
2022-08-26T13:17:32.322Z,29.33
2022-08-26T13:20:04.063Z,29.24
2022-08-26T13:22:32.497Z,29.30
2022-08-26T13:24:59.910Z,30.04
2022-08-26T13:27:28.129Z,30.45
2022-08-26T13:29:57.559Z,30.38
2022-08-26T13:32:27.465Z,30.13
2022-08-26T13:34:57.662Z,30.06
2022-08-26T13:37:35.003Z,30.26
2022-08-26T13:40:06.453Z,29.71
2022-08-26T13:42:34.533Z,30.26
2022-08-26T13:45:02.474Z,29.90
2022-08-26T13:47:32.745Z,29.53
2022-08-26T13:50:00.177Z,29.54
2022-08-26T13:52:30.242Z,29.32
2022-08-26T13:55:01.729Z,29.39
2022-08-26T13:57:30.647Z,29.78
2022-08-26T13:59:59.580Z,29.84
2022-08-26T14:02:28.273Z,29.73
2022-08-26T14:04:56.152Z,30.03
2022-08-26T14:07:23.962Z,30.05
2022-08-26T14:09:51.438Z,29.74
2022-08-26T14:12:19.504Z,29.77
2022-08-26T14:14:46.962Z,30.16
2022-08-26T14:17:19.462Z,29.85
2022-08-26T14:19:49.143Z,30.48
2022-08-26T14:22:18.844Z,30.60
2022-08-26T14:24:46.708Z,30.80
2022-08-26T14:27:14.983Z,30.89
2022-08-26T14:29:43.370Z,31.30
2022-08-26T14:32:18.895Z,31.71
2022-08-26T14:34:49.135Z,31.55
2022-08-26T14:37:18.092Z,31.69
2022-08-26T14:39:46.229Z,32.02
2022-08-26T14:42:16.836Z,32.13
2022-08-26T14:44:46.425Z,32.63
2022-08-26T14:47:14.100Z,33.30
2022-08-26T14:49:43.817Z,33.63
2022-08-26T14:52:11.634Z,34.29
2022-08-26T14:54:39.111Z,33.24
2022-08-26T14:57:09.268Z,32.87
2022-08-26T14:59:40.021Z,32.45
2022-08-26T15:02:11.488Z,32.68
2022-08-26T15:04:41.882Z,32.99
2022-08-26T15:07:09.628Z,33.66
2022-08-26T15:09:40.483Z,35.36
2022-08-26T15:12:10.046Z,34.14
2022-08-26T15:14:37.661Z,32.79
2022-08-26T15:17:06.545Z,33.39
2022-08-26T15:19:34.220Z,32.82
2022-08-26T15:22:01.626Z,33.64
2022-08-26T15:24:29.206Z,33.90
2022-08-26T15:26:56.963Z,34.77
2022-08-26T15:29:24.585Z,35.34
2022-08-26T15:31:57.215Z,35.92
2022-08-26T15:34:25.539Z,35.47
2022-08-26T15:36:52.946Z,34.33
2022-08-26T15:39:20.905Z,35.05
2022-08-26T15:41:48.744Z,35.71
2022-08-26T15:44:17.405Z,35.58
2022-08-26T15:46:45.099Z,35.91
2022-08-26T15:49:18.262Z,35.51
2022-08-26T15:51:48.286Z,35.83
2022-08-26T15:54:17.459Z,35.81
2022-08-26T15:56:47.912Z,34.95
2022-08-26T15:59:16.207Z,34.94
2022-08-26T16:01:43.729Z,34.76
2022-08-26T16:04:11.678Z,34.06
2022-08-26T16:06:41.252Z,33.74
2022-08-26T16:09:11.097Z,33.72
2022-08-26T16:11:38.912Z,33.22
2022-08-26T16:14:07.423Z,33.01
2022-08-26T16:16:39.494Z,32.66
2022-08-26T16:19:08.206Z,32.39
2022-08-26T16:21:36.364Z,32.07
2022-08-26T16:24:04.954Z,31.59
2022-08-26T16:26:35.153Z,30.62
2022-08-26T16:29:08.848Z,30.34
2022-08-26T16:31:38.483Z,30.37
2022-08-26T16:34:09.527Z,29.99
2022-08-26T16:36:38.960Z,28.66
2022-08-26T16:39:08.121Z,28.24
2022-08-26T16:41:36.220Z,27.99
2022-08-26T16:44:04.237Z,27.27
2022-08-26T16:46:31.884Z,26.91
2022-08-26T16:48:59.730Z,26.37
2022-08-26T16:51:28.340Z,26.53
2022-08-26T16:53:57.640Z,26.16
2022-08-26T16:56:33.749Z,25.76
2022-08-26T16:59:07.727Z,25.50
2022-08-26T17:01:35.743Z,25.47
2022-08-26T17:04:04.292Z,25.33
2022-08-26T17:06:31.806Z,25.03
2022-08-26T17:08:59.242Z,24.99
2022-08-26T17:11:27.086Z,25.00
2022-08-26T17:13:54.502Z,24.47
2022-08-26T17:16:26.360Z,24.57
2022-08-26T17:18:56.484Z,24.47
2022-08-26T17:21:24.024Z,24.14
2022-08-26T17:23:52.044Z,24.12
2022-08-26T17:26:20.077Z,24.03
2022-08-26T17:28:47.531Z,23.71
2022-08-26T17:31:15.010Z,23.65
2022-08-26T17:33:42.834Z,23.67
2022-08-26T17:36:10.819Z,23.53
2022-08-26T17:38:38.814Z,23.22
2022-08-26T17:41:11.018Z,23.10
2022-08-26T17:43:39.262Z,23.25
2022-08-26T17:46:09.570Z,23.00
2022-08-26T17:48:38.300Z,22.98
2022-08-26T17:51:11.390Z,22.75
2022-08-26T17:53:39.929Z,22.64
2022-08-26T17:56:13.139Z,22.76
2022-08-26T17:58:41.291Z,22.59
2022-08-26T18:01:18.963Z,22.73
2022-08-26T18:03:46.721Z,22.59
2022-08-26T18:06:14.719Z,22.36
2022-08-26T18:08:42.611Z,22.32
2022-08-26T18:11:12.868Z,22.29
2022-08-26T18:13:47.635Z,22.09
2022-08-26T18:16:17.720Z,21.75
2022-08-26T18:18:46.735Z,21.88
2022-08-26T18:21:18.038Z,21.74
2022-08-26T18:23:47.052Z,21.62
2022-08-26T18:26:19.701Z,21.51
2022-08-26T18:28:47.687Z,21.61
2022-08-26T18:31:15.628Z,21.43
2022-08-26T18:33:43.395Z,21.32
2022-08-26T18:36:26.795Z,21.40
2022-08-26T18:38:54.783Z,21.32
2022-08-26T18:41:24.591Z,21.30
2022-08-26T18:43:53.380Z,21.31
2022-08-26T18:46:25.169Z,21.03
2022-08-26T18:48:55.161Z,21.13
2022-08-26T18:51:24.193Z,21.23
2022-08-26T18:53:52.881Z,21.28
2022-08-26T18:56:20.745Z,21.09
2022-08-26T18:58:49.024Z,20.90
2022-08-26T19:01:17.897Z,20.78
2022-08-26T19:03:46.944Z,20.68
2022-08-26T19:06:17.337Z,20.50
2022-08-26T19:08:45.385Z,20.36
2022-08-26T19:11:31.439Z,20.35
2022-08-26T19:14:02.332Z,20.19
2022-08-26T19:16:31.244Z,19.94
2022-08-26T19:18:59.130Z,19.97
2022-08-26T19:21:26.776Z,20.11
2022-08-26T19:24:00.088Z,20.02
2022-08-26T19:26:28.813Z,19.24
2022-08-26T19:28:57.270Z,19.35
2022-08-26T19:31:25.141Z,19.39
2022-08-26T19:33:53.061Z,19.42
2022-08-26T19:36:24.216Z,19.19
2022-08-26T19:38:53.088Z,19.33
2022-08-26T19:41:36.659Z,19.09
2022-08-26T19:44:34.468Z,19.25
2022-08-26T19:47:03.845Z,19.27
2022-08-26T19:49:31.697Z,19.21
2022-08-26T19:51:59.241Z,19.08
2022-08-26T19:54:27.327Z,19.08
2022-08-26T19:56:54.788Z,19.26
2022-08-26T19:59:22.379Z,19.38
2022-08-26T20:01:52.974Z,19.41
2022-08-26T20:04:31.633Z,19.35
2022-08-26T20:07:01.025Z,19.07
2022-08-26T20:09:30.449Z,18.98
2022-08-26T20:11:58.865Z,18.97
2022-08-26T20:14:27.320Z,18.92
2022-08-26T20:16:54.724Z,18.91
2022-08-26T20:19:42.189Z,18.96
2022-08-26T20:22:09.771Z,18.98
2022-08-26T20:24:37.479Z,18.96
2022-08-26T20:27:08.002Z,18.91
2022-08-26T20:29:37.236Z,18.89
2022-08-26T20:32:08.054Z,18.84
2022-08-26T20:34:36.749Z,18.76
2022-08-26T20:37:05.923Z,18.76
2022-08-26T20:39:36.531Z,18.68
2022-08-26T20:42:04.584Z,18.76
2022-08-26T20:44:33.402Z,18.69
2022-08-26T20:47:01.224Z,18.50
2022-08-26T20:49:30.509Z,18.20
2022-08-26T20:52:02.708Z,18.21
2022-08-26T20:54:30.581Z,18.17
2022-08-26T20:56:58.885Z,18.01
2022-08-26T20:59:27.287Z,18.06
2022-08-26T21:01:55.298Z,18.02
2022-08-26T21:04:25.271Z,17.94
2022-08-26T21:06:54.634Z,17.93
2022-08-26T21:09:22.850Z,18.08
2022-08-26T21:11:51.070Z,17.91
2022-08-26T21:14:20.736Z,17.99
2022-08-26T21:16:48.253Z,17.74
2022-08-26T21:19:18.199Z,17.77
2022-08-26T21:21:47.905Z,17.79
2022-08-26T21:24:15.846Z,17.79
2022-08-26T21:26:43.632Z,17.73
2022-08-26T21:29:13.655Z,17.70
2022-08-26T21:31:46.127Z,17.56
2022-08-26T21:34:17.434Z,17.69
2022-08-26T21:36:46.208Z,17.70
2022-08-26T21:39:14.460Z,17.62
2022-08-26T21:41:43.482Z,17.68
2022-08-26T21:44:12.998Z,17.55
2022-08-26T21:46:41.076Z,17.34
2022-08-26T21:49:12.443Z,17.44
2022-08-26T21:51:43.833Z,17.51
2022-08-26T21:54:12.841Z,17.07
2022-08-26T21:56:44.764Z,17.33
2022-08-26T21:59:13.657Z,17.30
2022-08-26T22:01:41.549Z,17.13
2022-08-26T22:04:10.429Z,17.06
2022-08-26T22:06:48.311Z,17.19
2022-08-26T22:09:20.211Z,17.16
2022-08-26T22:11:47.803Z,17.18
2022-08-26T22:14:16.779Z,16.86
2022-08-26T22:16:50.110Z,16.93
2022-08-26T22:19:20.218Z,17.15
2022-08-26T22:21:50.889Z,16.91
2022-08-26T22:24:19.895Z,16.83
2022-08-26T22:26:48.659Z,16.95
2022-08-26T22:29:16.345Z,16.85
2022-08-26T22:31:43.875Z,16.79
2022-08-26T22:34:15.780Z,16.79
2022-08-26T22:36:48.466Z,16.90
2022-08-26T22:39:20.455Z,16.82
2022-08-26T22:41:48.928Z,16.74
2022-08-26T22:44:18.211Z,16.64
2022-08-26T22:46:45.994Z,16.41
2022-08-26T22:49:18.221Z,16.61
2022-08-26T22:51:46.883Z,16.47
2022-08-26T22:54:15.462Z,16.53
2022-08-26T22:56:44.798Z,16.57
2022-08-26T22:59:13.534Z,16.58
2022-08-26T23:01:43.163Z,16.47
2022-08-26T23:04:11.880Z,16.39
2022-08-26T23:06:41.976Z,16.34
2022-08-26T23:09:10.712Z,16.38
2022-08-26T23:11:42.150Z,16.40
2022-08-26T23:14:11.352Z,16.25
2022-08-26T23:16:43.392Z,16.10
2022-08-26T23:19:13.731Z,16.11
2022-08-26T23:21:41.514Z,16.26
2022-08-26T23:24:09.698Z,15.83
2022-08-26T23:26:38.728Z,15.85
2022-08-26T23:29:08.572Z,16.03
2022-08-26T23:31:38.165Z,16.08
2022-08-26T23:34:24.890Z,16.07
2022-08-26T23:36:52.933Z,16.07
2022-08-26T23:39:25.693Z,15.74
2022-08-26T23:41:53.173Z,15.72
2022-08-26T23:44:20.927Z,15.44
2022-08-26T23:46:48.780Z,15.42
2022-08-26T23:49:16.132Z,15.65
2022-08-26T23:52:02.156Z,15.85
2022-08-26T23:54:29.869Z,16.08
2022-08-26T23:56:57.343Z,15.71
2022-08-26T23:59:25.208Z,15.64
